createdAt,value
2017-11-14T00:00:06.475Z,0
2017-11-14T00:01:05.813Z,0
2017-11-14T00:02:06.502Z,0
2017-11-14T00:03:06.851Z,0
2017-11-14T00:04:06.869Z,0
2017-11-14T00:05:06.525Z,0
2017-11-14T00:06:06.878Z,0
2017-11-14T00:07:06.904Z,0
2017-11-14T00:08:06.574Z,0
2017-11-14T00:09:06.579Z,0
2017-11-14T00:10:06.937Z,0
2017-11-14T00:11:06.618Z,0
2017-11-14T00:12:06.636Z,0
2017-11-14T00:13:06.972Z,0
2017-11-14T00:14:06.654Z,0
2017-11-14T00:15:07.005Z,0
2017-11-14T00:16:06.663Z,0
2017-11-14T00:17:06.682Z,0
2017-11-14T00:18:07.037Z,0
2017-11-14T00:19:06.698Z,0
2017-11-14T00:20:07.048Z,0
2017-11-14T00:21:07.072Z,0
2017-11-14T00:22:06.736Z,0
2017-11-14T00:23:06.750Z,0
2017-11-14T00:24:07.091Z,0
2017-11-14T00:25:07.106Z,0
2017-11-14T00:26:06.771Z,0
2017-11-14T00:27:07.126Z,0
2017-11-14T00:28:06.471Z,0
2017-11-14T00:29:06.811Z,0
2017-11-14T00:30:07.166Z,0
2017-11-14T00:31:07.171Z,0
2017-11-14T00:32:06.843Z,0
2017-11-14T00:33:06.528Z,0
2017-11-14T00:34:06.861Z,0
2017-11-14T00:35:06.881Z,0
2017-11-14T00:36:07.221Z,0
2017-11-14T00:37:06.896Z,0
2017-11-14T00:38:07.254Z,0
2017-11-14T00:39:07.257Z,0
2017-11-14T00:40:06.592Z,0
2017-11-14T00:41:06.948Z,0
2017-11-14T00:42:07.303Z,0
2017-11-14T00:43:06.967Z,0
2017-11-14T00:44:06.972Z,0
2017-11-14T00:45:07.327Z,0
2017-11-14T00:46:07.355Z,0
2017-11-14T00:47:07.016Z,0
2017-11-14T00:48:07.352Z,0
2017-11-14T00:49:06.718Z,0
2017-11-14T00:50:07.044Z,0
2017-11-14T00:51:07.058Z,0
2017-11-14T00:52:07.392Z,0
2017-11-14T00:53:07.427Z,0
2017-11-14T00:54:07.087Z,0
2017-11-14T00:55:07.425Z,0
2017-11-14T00:56:07.121Z,0
2017-11-14T00:57:07.448Z,0
2017-11-14T00:58:07.468Z,0
2017-11-14T00:59:07.157Z,0
2017-11-14T01:00:07.164Z,0
2017-11-14T01:01:07.512Z,0
2017-11-14T01:02:07.511Z,0
2017-11-14T01:03:06.512Z,0
2017-11-14T01:04:06.884Z,0
2017-11-14T01:05:07.545Z,0
2017-11-14T01:06:06.897Z,0
2017-11-14T01:07:07.230Z,0
2017-11-14T01:08:07.575Z,0
2017-11-14T01:09:07.589Z,0
2017-11-14T01:10:07.260Z,0
2017-11-14T01:11:07.273Z,0
2017-11-14T01:12:07.283Z,0
2017-11-14T01:13:07.321Z,0
2017-11-14T01:14:07.307Z,0
2017-11-14T01:15:06.976Z,0
2017-11-14T01:16:07.323Z,0
2017-11-14T01:17:06.998Z,0
2017-11-14T01:18:07.691Z,0
2017-11-14T01:19:07.700Z,0
2017-11-14T01:20:07.376Z,0
2017-11-14T01:21:07.387Z,0
2017-11-14T01:22:07.421Z,0
2017-11-14T01:23:07.401Z,0
2017-11-14T01:24:07.756Z,0
2017-11-14T01:25:07.797Z,0
2017-11-14T01:26:07.798Z,0
2017-11-14T01:27:07.457Z,0
2017-11-14T01:28:07.802Z,0
2017-11-14T01:29:07.812Z,0
2017-11-14T01:30:07.491Z,0
2017-11-14T01:31:07.849Z,0
2017-11-14T01:32:07.163Z,0
2017-11-14T01:33:07.177Z,0
2017-11-14T01:34:07.878Z,0
2017-11-14T01:35:07.880Z,0
2017-11-14T01:36:07.897Z,0
2017-11-14T01:37:07.886Z,0
2017-11-14T01:38:07.238Z,0
2017-11-14T01:39:07.939Z,0
2017-11-14T01:40:07.591Z,0
2017-11-14T01:41:07.603Z,0
2017-11-14T01:42:07.936Z,0
2017-11-14T01:43:07.605Z,0
2017-11-14T01:44:07.636Z,0
2017-11-14T01:45:07.303Z,0
2017-11-14T01:46:07.864Z,0
2017-11-14T01:47:07.323Z,0
2017-11-14T01:48:07.676Z,0
2017-11-14T01:49:07.690Z,0
2017-11-14T01:50:08.046Z,0
2017-11-14T01:51:08.036Z,0
2017-11-14T01:52:08.063Z,0
2017-11-14T01:53:07.059Z,0
2017-11-14T01:54:07.747Z,0
2017-11-14T01:55:07.423Z,0
2017-11-14T01:56:08.098Z,0
2017-11-14T01:57:07.765Z,0
2017-11-14T01:58:07.441Z,0
2017-11-14T01:59:07.797Z,0
2017-11-14T02:00:07.823Z,0
2017-11-14T02:01:07.803Z,0
2017-11-14T02:02:07.839Z,0
2017-11-14T02:03:08.166Z,0
2017-11-14T02:04:07.853Z,0
2017-11-14T02:05:07.519Z,0
2017-11-14T02:06:07.865Z,0
2017-11-14T02:07:08.220Z,0
2017-11-14T02:08:07.896Z,0
2017-11-14T02:09:08.234Z,0
2017-11-14T02:10:07.261Z,0
2017-11-14T02:11:07.637Z,0
2017-11-14T02:12:07.593Z,0
2017-11-14T02:13:07.605Z,0
2017-11-14T02:14:08.298Z,0
2017-11-14T02:15:07.971Z,0
2017-11-14T02:16:08.019Z,0
2017-11-14T02:17:08.333Z,0
2017-11-14T02:18:08.677Z,0
2017-11-14T02:19:08.389Z,0
2017-11-14T02:20:07.710Z,0
2017-11-14T02:21:08.362Z,0
2017-11-14T02:22:07.703Z,0
2017-11-14T02:23:08.049Z,0
2017-11-14T02:24:08.411Z,0
2017-11-14T02:25:08.423Z,0
2017-11-14T02:26:07.748Z,0
2017-11-14T02:27:08.430Z,0
2017-11-14T02:28:08.434Z,0
2017-11-14T02:29:08.119Z,0
2017-11-14T02:30:08.470Z,0
2017-11-14T02:31:08.137Z,0
2017-11-14T02:32:08.158Z,0
2017-11-14T02:33:08.501Z,0
2017-11-14T02:34:07.867Z,0
2017-11-14T02:35:08.533Z,0
2017-11-14T02:36:07.856Z,0
2017-11-14T02:37:08.204Z,0
2017-11-14T02:38:08.220Z,0
2017-11-14T02:39:07.892Z,0
2017-11-14T02:40:08.248Z,0
2017-11-14T02:41:08.582Z,0
2017-11-14T02:42:08.601Z,0
2017-11-14T02:43:08.270Z,0
2017-11-14T02:44:07.956Z,0
2017-11-14T02:45:08.296Z,0
2017-11-14T02:46:08.305Z,0
2017-11-14T02:47:08.308Z,0
2017-11-14T02:48:08.345Z,0
2017-11-14T02:49:08.693Z,0
2017-11-14T02:50:08.070Z,0
2017-11-14T02:51:08.372Z,0
2017-11-14T02:52:08.386Z,0
2017-11-14T02:53:08.041Z,0
2017-11-14T02:54:08.055Z,0
2017-11-14T02:55:08.405Z,0
2017-11-14T02:56:08.075Z,0
2017-11-14T02:57:08.425Z,0
2017-11-14T02:58:08.776Z,0
2017-11-14T02:59:08.784Z,0
2017-11-14T03:00:08.801Z,0
2017-11-14T03:01:08.568Z,0
2017-11-14T03:02:08.489Z,0
2017-11-14T03:03:08.826Z,0
2017-11-14T03:04:08.492Z,0
2017-11-14T03:05:08.853Z,0
2017-11-14T03:06:08.534Z,0
2017-11-14T03:07:08.902Z,0
2017-11-14T03:08:08.200Z,0
2017-11-14T03:09:08.894Z,0
2017-11-14T03:10:08.562Z,0
2017-11-14T03:11:08.902Z,0
2017-11-14T03:12:08.592Z,0
2017-11-14T03:13:08.595Z,0
2017-11-14T03:14:08.953Z,0
2017-11-14T03:15:08.621Z,0
2017-11-14T03:16:08.962Z,0
2017-11-14T03:17:08.649Z,0
2017-11-14T03:18:08.999Z,0
2017-11-14T03:19:08.996Z,0
2017-11-14T03:20:08.684Z,0
2017-11-14T03:21:08.675Z,0
2017-11-14T03:22:08.696Z,0
2017-11-14T03:23:09.075Z,0
2017-11-14T03:24:08.715Z,0
2017-11-14T03:25:09.070Z,0
2017-11-14T03:26:08.422Z,0
2017-11-14T03:27:09.083Z,0
2017-11-14T03:28:09.102Z,0
2017-11-14T03:29:09.102Z,0
2017-11-14T03:30:08.792Z,0
2017-11-14T03:31:09.145Z,0
2017-11-14T03:32:08.824Z,0
2017-11-14T03:33:08.473Z,0
2017-11-14T03:34:09.156Z,0
2017-11-14T03:35:09.181Z,0
2017-11-14T03:36:09.193Z,0
2017-11-14T03:37:09.210Z,0
2017-11-14T03:38:09.208Z,0
2017-11-14T03:39:09.219Z,0
2017-11-14T03:40:09.237Z,0
2017-11-14T03:41:08.908Z,0
2017-11-14T03:42:09.266Z,0
2017-11-14T03:43:08.636Z,0
2017-11-14T03:44:08.934Z,0
2017-11-14T03:45:08.948Z,0
2017-11-14T03:46:08.951Z,0
2017-11-14T03:47:09.314Z,0
2017-11-14T03:48:09.319Z,0
2017-11-14T03:49:09.384Z,0
2017-11-14T03:50:09.349Z,0
2017-11-14T03:51:09.023Z,0
2017-11-14T03:52:09.028Z,0
2017-11-14T03:53:08.697Z,0
2017-11-14T03:54:09.375Z,0
2017-11-14T03:55:09.394Z,0
2017-11-14T03:56:08.389Z,0
2017-11-14T03:57:09.081Z,0
2017-11-14T03:58:09.421Z,0
2017-11-14T03:59:09.443Z,0
2017-11-14T04:00:09.106Z,0
2017-11-14T04:01:08.783Z,0
2017-11-14T04:02:09.131Z,0
2017-11-14T04:03:08.809Z,0
2017-11-14T04:04:09.509Z,0
2017-11-14T04:05:09.511Z,0
2017-11-14T04:06:08.971Z,0
2017-11-14T04:07:09.597Z,0
2017-11-14T04:08:09.200Z,0
2017-11-14T04:09:08.865Z,0
2017-11-14T04:10:09.549Z,0
2017-11-14T04:11:09.573Z,0
2017-11-14T04:12:09.262Z,0
2017-11-14T04:13:09.604Z,0
2017-11-14T04:14:09.276Z,0
2017-11-14T04:15:09.607Z,0
2017-11-14T04:16:09.629Z,0
2017-11-14T04:17:08.978Z,0
2017-11-14T04:18:09.308Z,0
2017-11-14T04:19:09.327Z,0
2017-11-14T04:20:09.685Z,0
2017-11-14T04:21:09.351Z,0
2017-11-14T04:22:09.436Z,0
2017-11-14T04:23:09.380Z,0
2017-11-14T04:24:09.800Z,0
2017-11-14T04:25:09.044Z,0
2017-11-14T04:26:09.731Z,0
2017-11-14T04:27:09.765Z,0
2017-11-14T04:28:09.749Z,0
2017-11-14T04:29:09.093Z,0
2017-11-14T04:30:09.440Z,0
2017-11-14T04:31:09.105Z,0
2017-11-14T04:32:09.124Z,0
2017-11-14T04:33:09.802Z,0
2017-11-14T04:34:09.479Z,0
2017-11-14T04:35:09.507Z,0
2017-11-14T04:36:09.563Z,0
2017-11-14T04:37:09.519Z,0
2017-11-14T04:38:09.863Z,0
2017-11-14T04:39:09.198Z,0
2017-11-14T04:40:09.884Z,0
2017-11-14T04:41:09.906Z,0
2017-11-14T04:42:09.565Z,0
2017-11-14T04:43:09.918Z,0
2017-11-14T04:44:09.629Z,0
2017-11-14T04:45:09.598Z,0
2017-11-14T04:46:09.611Z,0
2017-11-14T04:47:09.620Z,0
2017-11-14T04:48:09.641Z,0
2017-11-14T04:49:09.643Z,0
2017-11-14T04:50:09.316Z,0
2017-11-14T04:51:09.998Z,0
2017-11-14T04:52:09.689Z,0
2017-11-14T04:53:10.025Z,0
2017-11-14T04:54:09.699Z,0
2017-11-14T04:55:10.054Z,0
2017-11-14T04:56:09.732Z,0
2017-11-14T04:57:10.067Z,0
2017-11-14T04:58:10.080Z,0
2017-11-14T04:59:09.761Z,0
2017-11-14T05:00:09.770Z,0
2017-11-14T05:01:09.785Z,0
2017-11-14T05:02:09.795Z,0
2017-11-14T05:03:10.149Z,0
2017-11-14T05:04:09.141Z,0
2017-11-14T05:05:10.152Z,0
2017-11-14T05:06:09.832Z,0
2017-11-14T05:07:09.510Z,0
2017-11-14T05:08:09.849Z,0
2017-11-14T05:09:10.204Z,0
2017-11-14T05:10:10.221Z,0
2017-11-14T05:11:10.214Z,0
2017-11-14T05:12:09.892Z,0
2017-11-14T05:13:10.243Z,0
2017-11-14T05:14:09.938Z,0
2017-11-14T05:15:09.710Z,0
2017-11-14T05:16:10.273Z,0
2017-11-14T05:17:09.963Z,0
2017-11-14T05:18:10.300Z,0
2017-11-14T05:19:10.312Z,0
2017-11-14T05:20:10.344Z,0
2017-11-14T05:21:10.335Z,0
2017-11-14T05:22:10.347Z,0
2017-11-14T05:23:10.410Z,0
2017-11-14T05:24:10.026Z,0
2017-11-14T05:25:10.384Z,0
2017-11-14T05:26:10.388Z,0
2017-11-14T05:27:10.401Z,0
2017-11-14T05:28:10.091Z,0
2017-11-14T05:29:10.087Z,0
2017-11-14T05:30:09.756Z,0
2017-11-14T05:31:10.450Z,0
2017-11-14T05:32:10.163Z,0
2017-11-14T05:33:10.130Z,0
2017-11-14T05:34:10.482Z,0
2017-11-14T05:35:10.148Z,0
2017-11-14T05:36:09.823Z,0
2017-11-14T05:37:10.169Z,0
2017-11-14T05:38:10.186Z,0
2017-11-14T05:39:10.534Z,0
2017-11-14T05:40:10.553Z,0
2017-11-14T05:41:09.883Z,0
2017-11-14T05:42:10.258Z,0
2017-11-14T05:43:10.231Z,0
2017-11-14T05:44:10.581Z,0
2017-11-14T05:45:10.268Z,0
2017-11-14T05:46:09.932Z,0
2017-11-14T05:47:10.621Z,0
2017-11-14T05:48:10.289Z,0
2017-11-14T05:49:10.652Z,0
2017-11-14T05:50:10.308Z,0
2017-11-14T05:51:10.321Z,0
2017-11-14T05:52:10.349Z,0
2017-11-14T05:53:10.344Z,0
2017-11-14T05:54:10.696Z,0
2017-11-14T05:55:09.691Z,0
2017-11-14T05:56:10.377Z,0
2017-11-14T05:57:10.719Z,0
2017-11-14T05:58:10.734Z,0
2017-11-14T05:59:10.746Z,0
2017-11-14T06:00:09.750Z,0
2017-11-14T06:01:10.431Z,0
2017-11-14T06:02:10.751Z,0
2017-11-14T06:03:10.115Z,0
2017-11-14T06:04:10.464Z,0
2017-11-14T06:05:10.478Z,0
2017-11-14T06:06:09.810Z,4
2017-11-14T06:07:10.492Z,4
2017-11-14T06:08:10.855Z,0
2017-11-14T06:09:10.522Z,4
2017-11-14T06:10:10.869Z,4
2017-11-14T06:11:10.545Z,4
2017-11-14T06:12:10.545Z,8
2017-11-14T06:13:10.901Z,4
2017-11-14T06:14:10.923Z,8
2017-11-14T06:15:10.597Z,8
2017-11-14T06:16:10.591Z,8
2017-11-14T06:17:10.957Z,12
2017-11-14T06:18:10.947Z,12
2017-11-14T06:19:10.637Z,12
2017-11-14T06:20:10.984Z,12
2017-11-14T06:21:10.645Z,12
2017-11-14T06:22:10.318Z,16
2017-11-14T06:23:11.001Z,16
2017-11-14T06:24:10.016Z,20
2017-11-14T06:25:11.026Z,24
2017-11-14T06:26:10.366Z,24
2017-11-14T06:27:11.046Z,28
2017-11-14T06:28:11.060Z,28
2017-11-14T06:29:11.074Z,28
2017-11-14T06:30:10.077Z,36
2017-11-14T06:31:11.090Z,36
2017-11-14T06:32:10.768Z,40
2017-11-14T06:33:11.115Z,40
2017-11-14T06:34:10.792Z,44
2017-11-14T06:35:10.803Z,48
2017-11-14T06:36:11.152Z,52
2017-11-14T06:37:10.489Z,56
2017-11-14T06:38:10.856Z,60
2017-11-14T06:39:10.852Z,60
2017-11-14T06:40:10.520Z,64
2017-11-14T06:41:10.571Z,68
2017-11-14T06:42:11.212Z,68
2017-11-14T06:43:11.219Z,68
2017-11-14T06:44:10.906Z,72
2017-11-14T06:45:10.578Z,72
2017-11-14T06:46:10.922Z,76
2017-11-14T06:47:11.270Z,76
2017-11-14T06:48:11.280Z,80
2017-11-14T06:49:11.317Z,84
2017-11-14T06:50:11.321Z,92
2017-11-14T06:51:10.638Z,96
2017-11-14T06:52:10.994Z,104
2017-11-14T06:53:11.330Z,112
2017-11-14T06:54:10.676Z,112
2017-11-14T06:55:11.020Z,116
2017-11-14T06:56:11.046Z,124
2017-11-14T06:57:11.040Z,124
2017-11-14T06:58:11.384Z,124
2017-11-14T06:59:11.418Z,128
2017-11-14T07:00:11.410Z,140
2017-11-14T07:01:11.475Z,152
2017-11-14T07:02:11.427Z,172
2017-11-14T07:03:11.445Z,188
2017-11-14T07:04:11.120Z,184
2017-11-14T07:05:11.124Z,184
2017-11-14T07:06:11.152Z,172
2017-11-14T07:07:11.489Z,164
2017-11-14T07:08:11.497Z,156
2017-11-14T07:09:11.178Z,156
2017-11-14T07:10:11.208Z,160
2017-11-14T07:11:11.527Z,160
2017-11-14T07:12:11.563Z,168
2017-11-14T07:13:10.883Z,168
2017-11-14T07:14:11.566Z,172
2017-11-14T07:15:11.236Z,172
2017-11-14T07:16:10.916Z,176
2017-11-14T07:17:11.264Z,176
2017-11-14T07:18:11.607Z,176
2017-11-14T07:19:10.951Z,180
2017-11-14T07:20:11.627Z,184
2017-11-14T07:21:11.648Z,184
2017-11-14T07:22:11.648Z,184
2017-11-14T07:23:11.661Z,184
2017-11-14T07:24:10.988Z,188
2017-11-14T07:25:11.692Z,188
2017-11-14T07:26:11.701Z,192
2017-11-14T07:27:11.030Z,192
2017-11-14T07:28:11.750Z,188
2017-11-14T07:29:11.737Z,192
2017-11-14T07:30:11.394Z,188
2017-11-14T07:31:11.416Z,192
2017-11-14T07:32:11.419Z,196
2017-11-14T07:33:11.435Z,200
2017-11-14T07:34:11.794Z,200
2017-11-14T07:35:11.797Z,208
2017-11-14T07:36:11.465Z,208
2017-11-14T07:37:11.140Z,212
2017-11-14T07:38:11.825Z,216
2017-11-14T07:39:11.831Z,220
2017-11-14T07:40:11.172Z,220
2017-11-14T07:41:11.522Z,224
2017-11-14T07:42:11.193Z,224
2017-11-14T07:43:11.205Z,228
2017-11-14T07:44:11.552Z,228
2017-11-14T07:45:11.896Z,232
2017-11-14T07:46:11.572Z,236
2017-11-14T07:47:11.914Z,236
2017-11-14T07:48:11.933Z,236
2017-11-14T07:49:11.265Z,240
2017-11-14T07:50:11.613Z,240
2017-11-14T07:51:11.631Z,240
2017-11-14T07:52:11.304Z,244
2017-11-14T07:53:11.983Z,240
2017-11-14T07:54:11.678Z,244
2017-11-14T07:55:11.333Z,248
2017-11-14T07:56:11.337Z,252
2017-11-14T07:57:11.687Z,256
2017-11-14T07:58:12.056Z,256
2017-11-14T07:59:11.369Z,260
2017-11-14T08:00:12.053Z,260
2017-11-14T08:01:11.731Z,264
2017-11-14T08:02:11.749Z,264
2017-11-14T08:03:12.097Z,264
2017-11-14T08:04:11.765Z,264
2017-11-14T08:05:12.110Z,260
2017-11-14T08:06:12.124Z,264
2017-11-14T08:07:12.134Z,260
2017-11-14T08:08:11.808Z,260
2017-11-14T08:09:11.812Z,260
2017-11-14T08:10:12.161Z,260
2017-11-14T08:11:11.502Z,264
2017-11-14T08:12:12.194Z,260
2017-11-14T08:13:12.206Z,268
2017-11-14T08:14:11.871Z,268
2017-11-14T08:15:12.232Z,276
2017-11-14T08:16:11.922Z,284
2017-11-14T08:17:12.247Z,296
2017-11-14T08:18:12.251Z,304
2017-11-14T08:19:12.268Z,304
2017-11-14T08:20:11.940Z,304
2017-11-14T08:21:11.958Z,292
2017-11-14T08:22:12.293Z,284
2017-11-14T08:23:12.016Z,276
2017-11-14T08:24:11.978Z,272
2017-11-14T08:25:12.331Z,272
2017-11-14T08:26:12.344Z,272
2017-11-14T08:27:12.015Z,272
2017-11-14T08:28:12.020Z,272
2017-11-14T08:29:11.697Z,272
2017-11-14T08:30:12.048Z,276
2017-11-14T08:31:11.717Z,272
2017-11-14T08:32:12.060Z,272
2017-11-14T08:33:12.408Z,280
2017-11-14T08:34:12.427Z,276
2017-11-14T08:35:12.439Z,280
2017-11-14T08:36:12.141Z,280
2017-11-14T08:37:12.119Z,280
2017-11-14T08:38:12.477Z,284
2017-11-14T08:39:11.804Z,284
2017-11-14T08:40:12.495Z,284
2017-11-14T08:41:12.522Z,284
2017-11-14T08:42:12.177Z,288
2017-11-14T08:43:12.201Z,288
2017-11-14T08:44:12.540Z,288
2017-11-14T08:45:12.197Z,288
2017-11-14T08:46:12.239Z,288
2017-11-14T08:47:12.573Z,292
2017-11-14T08:48:11.907Z,292
2017-11-14T08:49:12.586Z,292
2017-11-14T08:50:12.624Z,292
2017-11-14T08:51:12.624Z,292
2017-11-14T08:52:12.291Z,292
2017-11-14T08:53:12.293Z,296
2017-11-14T08:54:12.308Z,300
2017-11-14T08:55:12.322Z,300
2017-11-14T08:56:12.658Z,300
2017-11-14T08:57:12.340Z,300
2017-11-14T08:58:12.694Z,300
2017-11-14T08:59:12.714Z,304
2017-11-14T09:00:12.033Z,304
2017-11-14T09:01:12.045Z,304
2017-11-14T09:02:12.388Z,304
2017-11-14T09:03:12.421Z,308
2017-11-14T09:04:12.420Z,312
2017-11-14T09:05:12.771Z,312
2017-11-14T09:06:12.780Z,312
2017-11-14T09:07:12.442Z,304
2017-11-14T09:08:12.461Z,308
2017-11-14T09:09:12.814Z,308
2017-11-14T09:10:12.821Z,316
2017-11-14T09:11:12.829Z,316
2017-11-14T09:12:12.840Z,320
2017-11-14T09:13:12.867Z,324
2017-11-14T09:14:11.868Z,324
2017-11-14T09:15:12.871Z,336
2017-11-14T09:16:12.891Z,344
2017-11-14T09:17:12.940Z,352
2017-11-14T09:18:12.573Z,364
2017-11-14T09:19:12.583Z,380
2017-11-14T09:20:12.591Z,392
2017-11-14T09:21:12.600Z,400
2017-11-14T09:22:12.619Z,388
2017-11-14T09:23:12.965Z,380
2017-11-14T09:24:12.986Z,368
2017-11-14T09:25:12.655Z,356
2017-11-14T09:26:13.001Z,348
2017-11-14T09:27:13.004Z,336
2017-11-14T09:28:13.028Z,332
2017-11-14T09:29:12.696Z,328
2017-11-14T09:30:13.051Z,328
2017-11-14T09:31:13.060Z,328
2017-11-14T09:32:13.061Z,328
2017-11-14T09:33:13.080Z,332
2017-11-14T09:34:12.413Z,328
2017-11-14T09:35:13.099Z,332
2017-11-14T09:36:12.766Z,332
2017-11-14T09:37:12.833Z,328
2017-11-14T09:38:13.137Z,324
2017-11-14T09:39:13.149Z,332
2017-11-14T09:40:13.155Z,332
2017-11-14T09:41:13.182Z,336
2017-11-14T09:42:13.172Z,336
2017-11-14T09:43:12.856Z,348
2017-11-14T09:44:12.861Z,356
2017-11-14T09:45:12.877Z,368
2017-11-14T09:46:12.564Z,384
2017-11-14T09:47:13.226Z,404
2017-11-14T09:48:12.565Z,396
2017-11-14T09:49:12.912Z,388
2017-11-14T09:50:12.955Z,372
2017-11-14T09:51:12.944Z,372
2017-11-14T09:52:12.974Z,372
2017-11-14T09:53:12.963Z,364
2017-11-14T09:54:12.636Z,360
2017-11-14T09:55:13.316Z,360
2017-11-14T09:56:13.006Z,360
2017-11-14T09:57:12.678Z,360
2017-11-14T09:58:13.350Z,368
2017-11-14T09:59:13.023Z,364
2017-11-14T10:00:13.042Z,376
2017-11-14T10:01:13.390Z,380
2017-11-14T10:02:13.411Z,384
2017-11-14T10:03:13.422Z,468
2017-11-14T10:04:13.426Z,412
2017-11-14T10:05:13.434Z,392
2017-11-14T10:06:13.440Z,404
2017-11-14T10:07:13.453Z,396
2017-11-14T10:08:12.799Z,400
2017-11-14T10:09:12.811Z,408
2017-11-14T10:10:13.494Z,448
2017-11-14T10:11:13.498Z,412
2017-11-14T10:12:13.190Z,408
2017-11-14T10:13:13.579Z,412
2017-11-14T10:14:13.222Z,388
2017-11-14T10:15:13.555Z,416
2017-11-14T10:16:13.562Z,420
2017-11-14T10:17:13.596Z,420
2017-11-14T10:18:13.252Z,428
2017-11-14T10:19:13.611Z,456
2017-11-14T10:20:13.280Z,480
2017-11-14T10:21:13.618Z,464
2017-11-14T10:22:13.329Z,524
2017-11-14T10:23:13.310Z,652
2017-11-14T10:24:13.654Z,528
2017-11-14T10:25:13.673Z,488
2017-11-14T10:26:13.681Z,536
2017-11-14T10:27:13.701Z,520
2017-11-14T10:28:13.416Z,424
2017-11-14T10:29:13.382Z,448
2017-11-14T10:30:13.406Z,480
2017-11-14T10:31:13.061Z,484
2017-11-14T10:32:13.743Z,588
2017-11-14T10:33:13.429Z,696
2017-11-14T10:34:13.432Z,480
2017-11-14T10:35:13.446Z,464
2017-11-14T10:36:13.798Z,680
2017-11-14T10:37:13.469Z,660
2017-11-14T10:38:13.492Z,1336
2017-11-14T10:39:13.540Z,1348
2017-11-14T10:40:13.851Z,1348
2017-11-14T10:41:13.867Z,1132
2017-11-14T10:42:13.527Z,1172
2017-11-14T10:43:13.545Z,868
2017-11-14T10:44:13.893Z,1332
2017-11-14T10:45:13.900Z,1616
2017-11-14T10:46:13.912Z,820
2017-11-14T10:47:13.923Z,1288
2017-11-14T10:48:13.268Z,1216
2017-11-14T10:49:13.948Z,1148
2017-11-14T10:50:13.650Z,1180
2017-11-14T10:51:13.306Z,1264
2017-11-14T10:52:13.664Z,916
2017-11-14T10:53:14.030Z,704
2017-11-14T10:54:14.018Z,1096
2017-11-14T10:55:14.026Z,1240
2017-11-14T10:56:14.050Z,1108
2017-11-14T10:57:14.059Z,540
2017-11-14T10:58:13.732Z,588
2017-11-14T10:59:14.080Z,732
2017-11-14T11:00:13.756Z,708
2017-11-14T11:01:13.766Z,872
2017-11-14T11:02:13.790Z,684
2017-11-14T11:03:13.787Z,812
2017-11-14T11:04:14.137Z,648
2017-11-14T11:05:13.857Z,620
2017-11-14T11:06:13.879Z,456
2017-11-14T11:07:14.173Z,880
2017-11-14T11:08:14.191Z,728
2017-11-14T11:09:13.852Z,728
2017-11-14T11:10:13.878Z,572
2017-11-14T11:11:13.896Z,548
2017-11-14T11:12:14.239Z,476
2017-11-14T11:13:13.921Z,596
2017-11-14T11:14:14.261Z,492
2017-11-14T11:15:13.935Z,520
2017-11-14T11:16:14.293Z,564
2017-11-14T11:17:14.299Z,744
2017-11-14T11:18:14.306Z,812
2017-11-14T11:19:14.325Z,812
2017-11-14T11:20:13.670Z,916
2017-11-14T11:21:14.010Z,940
2017-11-14T11:22:13.694Z,840
2017-11-14T11:23:14.378Z,820
2017-11-14T11:24:14.051Z,872
2017-11-14T11:25:14.415Z,1260
2017-11-14T11:26:14.412Z,1328
2017-11-14T11:27:14.437Z,880
2017-11-14T11:28:13.762Z,836
2017-11-14T11:29:14.452Z,704
2017-11-14T11:30:14.129Z,692
2017-11-14T11:31:14.136Z,604
2017-11-14T11:32:14.532Z,492
2017-11-14T11:33:14.167Z,456
2017-11-14T11:34:14.523Z,692
2017-11-14T11:35:14.201Z,864
2017-11-14T11:36:14.545Z,792
2017-11-14T11:37:14.556Z,468
2017-11-14T11:38:13.891Z,776
2017-11-14T11:39:14.599Z,1092
2017-11-14T11:40:14.603Z,1184
2017-11-14T11:41:14.617Z,888
2017-11-14T11:42:14.287Z,1152
2017-11-14T11:43:14.666Z,908
2017-11-14T11:44:14.311Z,1008
2017-11-14T11:45:14.657Z,1512
2017-11-14T11:46:14.349Z,1284
2017-11-14T11:47:14.013Z,1384
2017-11-14T11:48:14.701Z,1452
2017-11-14T11:49:14.712Z,1048
2017-11-14T11:50:14.731Z,1084
2017-11-14T11:51:14.749Z,1420
2017-11-14T11:52:14.411Z,1760
2017-11-14T11:53:14.772Z,1956
2017-11-14T11:54:14.436Z,1928
2017-11-14T11:55:14.455Z,1500
2017-11-14T11:56:14.828Z,1228
2017-11-14T11:57:14.478Z,1252
2017-11-14T11:58:14.829Z,1096
2017-11-14T11:59:14.167Z,1128
2017-11-14T12:00:14.864Z,1160
2017-11-14T12:01:14.873Z,1508
2017-11-14T12:02:14.904Z,1564
2017-11-14T12:03:14.905Z,1368
2017-11-14T12:04:14.573Z,1220
2017-11-14T12:05:14.251Z,1232
2017-11-14T12:06:14.934Z,1712
2017-11-14T12:07:14.952Z,2000
2017-11-14T12:08:14.966Z,1368
2017-11-14T12:09:14.989Z,816
2017-11-14T12:10:14.654Z,812
2017-11-14T12:11:14.702Z,1044
2017-11-14T12:12:15.013Z,816
2017-11-14T12:13:15.040Z,1028
2017-11-14T12:14:14.713Z,1028
2017-11-14T12:15:15.055Z,612
2017-11-14T12:16:14.748Z,480
2017-11-14T12:17:15.085Z,548
2017-11-14T12:18:14.776Z,612
2017-11-14T12:19:15.104Z,456
2017-11-14T12:20:15.126Z,524
2017-11-14T12:21:15.140Z,480
2017-11-14T12:22:14.811Z,492
2017-11-14T12:23:14.831Z,612
2017-11-14T12:24:14.506Z,468
2017-11-14T12:25:14.515Z,400
2017-11-14T12:26:14.863Z,404
2017-11-14T12:27:15.230Z,392
2017-11-14T12:28:15.244Z,400
2017-11-14T12:29:14.580Z,412
2017-11-14T12:30:15.266Z,424
2017-11-14T12:31:15.277Z,420
2017-11-14T12:32:14.960Z,448
2017-11-14T12:33:15.306Z,560
2017-11-14T12:34:15.330Z,908
2017-11-14T12:35:15.327Z,788
2017-11-14T12:36:15.355Z,1068
2017-11-14T12:37:15.409Z,1424
2017-11-14T12:38:15.042Z,1856
2017-11-14T12:39:15.396Z,1076
2017-11-14T12:40:15.394Z,1060
2017-11-14T12:41:15.409Z,924
2017-11-14T12:42:15.086Z,852
2017-11-14T12:43:15.449Z,880
2017-11-14T12:44:15.456Z,788
2017-11-14T12:45:15.132Z,764
2017-11-14T12:46:15.148Z,1200
2017-11-14T12:47:15.158Z,1568
2017-11-14T12:48:15.178Z,1408
2017-11-14T12:49:15.530Z,1060
2017-11-14T12:50:14.861Z,984
2017-11-14T12:51:15.210Z,956
2017-11-14T12:52:15.588Z,984
2017-11-14T12:53:15.251Z,1080
2017-11-14T12:54:15.589Z,1620
2017-11-14T12:55:14.927Z,1500
2017-11-14T12:56:15.287Z,1088
2017-11-14T12:57:15.432Z,888
2017-11-14T12:58:15.184Z,808
2017-11-14T12:59:15.222Z,820
2017-11-14T13:00:15.222Z,1148
2017-11-14T13:01:14.952Z,1220
2017-11-14T13:02:15.504Z,876
2017-11-14T13:03:15.266Z,668
2017-11-14T13:04:15.538Z,700
2017-11-14T13:05:15.545Z,848
2017-11-14T13:06:15.565Z,744
2017-11-14T13:07:15.583Z,840
2017-11-14T13:08:15.605Z,1068
2017-11-14T13:09:15.613Z,1248
2017-11-14T13:10:15.352Z,796
2017-11-14T13:11:15.636Z,680
2017-11-14T13:12:15.662Z,648
2017-11-14T13:13:15.665Z,796
2017-11-14T13:14:15.397Z,832
2017-11-14T13:15:15.715Z,704
2017-11-14T13:16:15.430Z,520
2017-11-14T13:17:15.463Z,396
2017-11-14T13:18:15.729Z,432
2017-11-14T13:19:15.480Z,476
2017-11-14T13:20:15.494Z,596
2017-11-14T13:21:15.504Z,780
2017-11-14T13:22:15.795Z,748
2017-11-14T13:23:15.537Z,596
2017-11-14T13:24:15.552Z,524
2017-11-14T13:25:15.582Z,588
2017-11-14T13:26:15.862Z,476
2017-11-14T13:27:15.870Z,392
2017-11-14T13:28:15.881Z,392
2017-11-14T13:29:15.621Z,364
2017-11-14T13:30:15.922Z,360
2017-11-14T13:31:15.654Z,356
2017-11-14T13:32:15.948Z,328
2017-11-14T13:33:15.991Z,320
2017-11-14T13:34:15.961Z,308
2017-11-14T13:35:15.435Z,312
2017-11-14T13:36:15.447Z,320
2017-11-14T13:37:15.736Z,324
2017-11-14T13:38:15.751Z,332
2017-11-14T13:39:15.767Z,312
2017-11-14T13:40:16.044Z,308
2017-11-14T13:41:15.814Z,304
2017-11-14T13:42:16.081Z,300
2017-11-14T13:43:16.104Z,296
2017-11-14T13:44:15.832Z,296
2017-11-14T13:45:15.847Z,296
2017-11-14T13:46:16.139Z,292
2017-11-14T13:47:16.169Z,288
2017-11-14T13:48:16.170Z,292
2017-11-14T13:49:15.909Z,288
2017-11-14T13:50:15.926Z,288
2017-11-14T13:51:15.669Z,284
2017-11-14T13:52:16.226Z,284
2017-11-14T13:53:15.972Z,284
2017-11-14T13:54:16.262Z,284
2017-11-14T13:55:16.011Z,284
2017-11-14T13:56:15.748Z,280
2017-11-14T13:57:16.294Z,276
2017-11-14T13:58:16.314Z,272
2017-11-14T13:59:15.785Z,272
2017-11-14T14:00:16.336Z,272
2017-11-14T14:01:16.087Z,272
2017-11-14T14:02:16.117Z,268
2017-11-14T14:03:16.384Z,268
2017-11-14T14:04:15.609Z,268
2017-11-14T14:05:16.143Z,260
2017-11-14T14:06:16.162Z,276
2017-11-14T14:07:16.447Z,304
2017-11-14T14:08:16.469Z,308
2017-11-14T14:09:16.195Z,256
2017-11-14T14:10:16.227Z,264
2017-11-14T14:11:16.506Z,292